CZ-0140 weather

CLOSED Černovice u Tábora Airstrip
Vysočina Region, Czechia

Public forecast

Using degrees Celsius for public forecast. Weather courtesy of forecast.io.

METAR (pilot weather report)

Closest report is Čáslav Air Base, 37.0 nm (68.6 km) NNE. Retrieved 2019/09/18 08:00 UTC (24 minutes ago):

LKCV 180800Z 31016KT 9999 BKN031 11/04 Q1023 NOSIG RMK BLU BLU

TAF (pilot weather forecast)

Closest forecast is Čáslav Air Base, 37.0 nm (68.6 km) NNE. Retrieved 2019/09/18 06:00 UTC (2 hours ago):

TAF LKCV 180500Z 1806/1906 28012KT CAVOK TEMPO 1806/1816 30016KT TEMPO 1809/1814 BKN035 BECMG 1816/1818 29008KT